createdAt,value
2019-03-28T00:00:54.160Z,8.43
2019-03-28T00:03:24.313Z,8.40
2019-03-28T00:05:53.202Z,8.03
2019-03-28T00:08:22.143Z,8.23
2019-03-28T00:10:51.160Z,8.30
2019-03-28T00:13:20.111Z,7.87
2019-03-28T00:15:49.136Z,8.17
2019-03-28T00:18:18.092Z,8.23
2019-03-28T00:20:47.029Z,8.80
2019-03-28T00:23:29.880Z,9.60
2019-03-28T00:25:58.874Z,9.60
2019-03-28T00:28:27.831Z,9.87
2019-03-28T00:30:56.852Z,9.47
2019-03-28T00:33:25.781Z,8.77
2019-03-28T00:35:54.721Z,9.27
2019-03-28T00:38:23.750Z,9.97
2019-03-28T00:40:52.688Z,10.67
2019-03-28T00:43:21.692Z,11.00
2019-03-28T00:45:50.647Z,10.27
2019-03-28T00:48:20.684Z,10.43
2019-03-28T00:50:49.642Z,9.43
2019-03-28T00:53:18.573Z,9.33
2019-03-28T00:55:47.524Z,9.03
2019-03-28T00:58:18.554Z,9.03
2019-03-28T01:00:47.587Z,10.07
2019-03-28T01:03:16.522Z,8.50
2019-03-28T01:05:45.558Z,9.33
2019-03-28T01:08:17.476Z,9.40
2019-03-28T01:10:47.187Z,9.10
2019-03-28T01:13:16.267Z,9.03
2019-03-28T01:15:45.347Z,9.77
2019-03-28T01:18:14.351Z,9.00
2019-03-28T01:20:43.394Z,9.13
2019-03-28T01:23:12.337Z,9.20
2019-03-28T01:25:41.290Z,8.80
2019-03-28T01:28:10.231Z,8.97
2019-03-28T01:30:39.179Z,8.53
2019-03-28T01:33:13.611Z,9.37
2019-03-28T01:35:42.625Z,8.90
2019-03-28T01:38:14.592Z,8.63
2019-03-28T01:40:42.206Z,8.77
2019-03-28T01:43:11.253Z,8.20
2019-03-28T01:45:40.209Z,8.90
2019-03-28T01:48:09.127Z,8.60
2019-03-28T01:50:38.070Z,8.80
2019-03-28T01:53:06.994Z,7.70
2019-03-28T01:55:35.955Z,7.70
2019-03-28T01:58:05.296Z,8.10
2019-03-28T02:00:34.554Z,8.27
2019-03-28T02:03:03.547Z,8.10
2019-03-28T02:05:32.462Z,8.63
2019-03-28T02:08:02.819Z,8.07
2019-03-28T02:10:31.896Z,8.50
2019-03-28T02:13:00.848Z,9.33
2019-03-28T02:15:30.212Z,8.73
2019-03-28T02:17:59.306Z,8.47
2019-03-28T02:20:28.234Z,8.50
2019-03-28T02:22:57.238Z,8.67
2019-03-28T02:25:26.190Z,9.10
2019-03-28T02:27:55.230Z,7.70
2019-03-28T02:30:31.934Z,8.67
2019-03-28T02:33:01.305Z,9.30
2019-03-28T02:35:30.211Z,9.03
2019-03-28T02:37:59.503Z,9.10
2019-03-28T02:40:28.507Z,8.93
2019-03-28T02:42:57.474Z,9.37
2019-03-28T02:45:26.403Z,9.57
2019-03-28T02:47:55.505Z,7.33
2019-03-28T02:50:24.454Z,8.53
2019-03-28T02:52:53.410Z,8.60
2019-03-28T02:55:23.663Z,9.07
2019-03-28T02:57:52.935Z,9.30
2019-03-28T03:00:22.151Z,9.57
2019-03-28T03:02:51.097Z,9.00
2019-03-28T03:05:20.047Z,8.47
2019-03-28T03:07:48.988Z,8.20
2019-03-28T03:10:18.019Z,8.83
2019-03-28T03:12:47.006Z,8.10
2019-03-28T03:15:16.025Z,7.57
2019-03-28T03:17:45.023Z,8.80
2019-03-28T03:20:14.106Z,7.37
2019-03-28T03:22:43.037Z,8.43
2019-03-28T03:25:12.429Z,7.77
2019-03-28T03:27:56.801Z,8.10
2019-03-28T03:30:12.457Z,7.90
2019-03-28T03:32:41.457Z,8.27
2019-03-28T03:35:10.649Z,8.63
2019-03-28T03:37:39.632Z,8.07
2019-03-28T03:40:09.345Z,8.40
2019-03-28T03:42:38.334Z,8.90
2019-03-28T03:45:09.583Z,10.30
2019-03-28T03:47:38.806Z,9.20
2019-03-28T03:50:09.497Z,8.97
2019-03-28T03:52:38.426Z,8.63
2019-03-28T03:55:07.543Z,8.80
2019-03-28T03:57:36.469Z,8.60
2019-03-28T04:00:10.035Z,8.20
2019-03-28T04:02:38.965Z,8.97
2019-03-28T04:05:08.069Z,8.43
2019-03-28T04:07:37.075Z,8.73
2019-03-28T04:10:06.759Z,8.40
2019-03-28T04:12:35.768Z,9.07
2019-03-28T04:15:05.628Z,8.63
2019-03-28T04:17:34.574Z,9.60
2019-03-28T04:20:05.154Z,10.10
2019-03-28T04:22:34.135Z,9.63
2019-03-28T04:25:03.145Z,9.10
2019-03-28T04:27:32.156Z,8.60
2019-03-28T04:30:01.075Z,8.50
2019-03-28T04:32:30.023Z,8.17
2019-03-28T04:34:59.547Z,8.27
2019-03-28T04:37:28.694Z,8.40
2019-03-28T04:39:57.616Z,8.70
2019-03-28T04:42:26.582Z,9.00
2019-03-28T04:44:55.575Z,8.90
2019-03-28T04:47:24.541Z,8.60
2019-03-28T04:49:53.466Z,8.33
2019-03-28T04:52:22.422Z,8.50
2019-03-28T04:54:51.345Z,8.33
2019-03-28T04:57:20.293Z,9.27
2019-03-28T04:59:49.290Z,10.57
2019-03-28T05:02:18.243Z,8.90
2019-03-28T05:04:47.173Z,9.97
2019-03-28T05:07:16.436Z,8.77
2019-03-28T05:09:45.632Z,9.33
2019-03-28T05:12:14.592Z,8.80
2019-03-28T05:14:43.610Z,9.03
2019-03-28T05:17:12.655Z,9.97
2019-03-28T05:19:41.670Z,11.87
2019-03-28T05:22:10.675Z,9.90
2019-03-28T05:24:39.654Z,9.40
2019-03-28T05:27:08.619Z,8.93
2019-03-28T05:29:37.534Z,9.50
2019-03-28T05:32:06.660Z,10.13
2019-03-28T05:34:35.593Z,9.53
2019-03-28T05:37:04.776Z,10.03
2019-03-28T05:39:33.728Z,9.87
2019-03-28T05:42:02.665Z,11.63
2019-03-28T05:44:31.659Z,10.10
2019-03-28T05:47:00.599Z,10.93
2019-03-28T05:49:29.587Z,9.70
2019-03-28T05:51:58.507Z,10.83
2019-03-28T05:54:27.514Z,9.77
2019-03-28T05:56:56.452Z,10.87
2019-03-28T05:59:25.429Z,10.57
2019-03-28T06:01:54.352Z,10.57
2019-03-28T06:04:23.459Z,11.33
2019-03-28T06:06:52.434Z,10.40
2019-03-28T06:09:21.457Z,11.63
2019-03-28T06:11:52.882Z,10.57
2019-03-28T06:14:21.120Z,10.17
2019-03-28T06:16:50.072Z,10.57
2019-03-28T06:19:19.109Z,11.23
2019-03-28T06:21:48.064Z,11.40
2019-03-28T06:24:17.043Z,10.63
2019-03-28T06:26:45.977Z,10.77
2019-03-28T06:29:23.838Z,11.63
2019-03-28T06:31:55.215Z,11.13
2019-03-28T06:34:16.351Z,10.87
2019-03-28T06:36:45.285Z,11.63
2019-03-28T06:39:14.221Z,11.07
2019-03-28T06:41:44.457Z,10.97
2019-03-28T06:44:13.532Z,12.03
2019-03-28T06:46:42.507Z,11.83
2019-03-28T06:49:11.443Z,11.77
2019-03-28T06:51:40.448Z,12.03
2019-03-28T06:54:09.386Z,12.37
2019-03-28T06:56:38.381Z,11.83
2019-03-28T06:59:07.447Z,12.10
2019-03-28T07:01:36.427Z,12.53
2019-03-28T07:04:05.365Z,11.80
2019-03-28T07:06:34.406Z,12.77
2019-03-28T07:09:04.188Z,10.70
2019-03-28T07:11:33.237Z,11.67
2019-03-28T07:14:02.427Z,10.53
2019-03-28T07:16:31.618Z,11.27
2019-03-28T07:19:00.567Z,10.63
2019-03-28T07:21:30.412Z,10.70
2019-03-28T07:23:59.366Z,12.07
2019-03-28T07:26:28.350Z,10.90
2019-03-28T07:28:57.339Z,9.60
2019-03-28T07:31:26.327Z,10.50
2019-03-28T07:33:55.245Z,9.83
2019-03-28T07:36:24.314Z,10.10
2019-03-28T07:38:53.257Z,10.13
2019-03-28T07:41:22.202Z,9.63
2019-03-28T07:43:51.288Z,14.13
2019-03-28T07:46:20.298Z,11.97
2019-03-28T07:48:49.275Z,9.40
2019-03-28T07:51:18.262Z,9.93
2019-03-28T07:53:47.467Z,10.80
2019-03-28T07:56:16.489Z,11.07
2019-03-28T07:58:45.547Z,10.80
2019-03-28T08:01:17.665Z,10.33
2019-03-28T08:03:45.233Z,10.73
2019-03-28T08:06:14.189Z,11.03
2019-03-28T08:08:44.292Z,9.77
2019-03-28T08:11:13.328Z,12.20
2019-03-28T08:13:42.335Z,11.67
2019-03-28T08:16:11.299Z,11.97
2019-03-28T08:18:40.284Z,12.77
2019-03-28T08:21:09.235Z,14.47
2019-03-28T08:23:38.243Z,13.93
2019-03-28T08:26:07.366Z,11.97
2019-03-28T08:28:36.334Z,12.23
2019-03-28T08:31:05.508Z,13.00
2019-03-28T08:33:36.683Z,10.20
2019-03-28T08:36:06.302Z,10.33
2019-03-28T08:38:38.094Z,10.27
2019-03-28T08:41:07.352Z,9.10
2019-03-28T08:43:36.519Z,9.77
2019-03-28T08:46:08.670Z,10.23
2019-03-28T08:48:36.217Z,8.87
2019-03-28T08:51:05.245Z,10.17
2019-03-28T08:53:34.362Z,11.00
2019-03-28T08:56:03.372Z,10.00
2019-03-28T08:58:32.319Z,9.93
2019-03-28T09:01:01.383Z,8.27
2019-03-28T09:03:30.467Z,8.03
2019-03-28T09:05:59.497Z,8.77
2019-03-28T09:08:28.454Z,9.13
2019-03-28T09:10:57.441Z,8.70
2019-03-28T09:13:26.484Z,7.53
2019-03-28T09:15:55.574Z,6.40
2019-03-28T09:18:24.510Z,7.57
2019-03-28T09:20:53.488Z,7.40
2019-03-28T09:23:22.497Z,6.83
2019-03-28T09:25:51.466Z,5.70
2019-03-28T09:28:20.431Z,5.50
2019-03-28T09:30:49.882Z,6.57
2019-03-28T09:33:18.969Z,7.00
2019-03-28T09:35:48.001Z,7.20
2019-03-28T09:38:17.023Z,7.27
2019-03-28T09:40:46.004Z,6.47
2019-03-28T09:43:14.936Z,6.37
2019-03-28T09:45:43.897Z,6.50
2019-03-28T09:48:12.878Z,6.03
2019-03-28T09:50:41.871Z,5.67
2019-03-28T09:53:10.892Z,5.27
2019-03-28T09:55:39.919Z,6.07
2019-03-28T09:58:08.954Z,6.93
2019-03-28T10:00:38.060Z,6.77
2019-03-28T10:03:07.076Z,6.70
2019-03-28T10:05:37.955Z,7.10
2019-03-28T10:08:06.966Z,8.30
2019-03-28T10:10:35.920Z,6.03
2019-03-28T10:13:04.899Z,6.30
2019-03-28T10:15:36.799Z,6.60
2019-03-28T10:18:04.802Z,5.80
2019-03-28T10:20:33.913Z,5.87
2019-03-28T10:23:02.883Z,6.10
2019-03-28T10:25:31.872Z,5.53
2019-03-28T10:28:00.940Z,5.60
2019-03-28T10:30:40.949Z,6.30
2019-03-28T10:33:10.337Z,4.77
2019-03-28T10:35:40.016Z,7.37
2019-03-28T10:38:09.134Z,5.57
2019-03-28T10:40:38.175Z,4.47
2019-03-28T10:43:07.226Z,5.00
2019-03-28T10:45:36.301Z,4.90
2019-03-28T10:48:05.412Z,4.77
2019-03-28T10:50:42.231Z,4.13
2019-03-28T10:53:05.119Z,4.93
2019-03-28T10:55:34.135Z,4.83
2019-03-28T10:58:17.216Z,5.80
2019-03-28T11:00:34.029Z,4.80
2019-03-28T11:03:03.087Z,5.27
2019-03-28T11:05:32.396Z,5.30
2019-03-28T11:08:01.354Z,4.37
2019-03-28T11:10:30.662Z,3.17
2019-03-28T11:12:59.854Z,3.03
2019-03-28T11:15:28.790Z,2.50
2019-03-28T11:17:57.741Z,2.47
2019-03-28T11:20:26.774Z,2.67
2019-03-28T11:22:55.778Z,2.50
2019-03-28T11:25:24.818Z,2.80
2019-03-28T11:27:53.766Z,3.03
2019-03-28T11:30:22.824Z,2.70
2019-03-28T11:32:51.761Z,2.00
2019-03-28T11:35:20.807Z,1.57
2019-03-28T11:37:49.829Z,0.93
2019-03-28T11:40:18.907Z,0.80
2019-03-28T11:42:47.908Z,1.80
2019-03-28T11:45:17.075Z,2.37
2019-03-28T11:47:46.070Z,2.53
2019-03-28T11:50:17.262Z,2.70
2019-03-28T11:52:46.426Z,2.87
2019-03-28T11:55:16.058Z,3.20
2019-03-28T11:57:45.073Z,4.13
2019-03-28T12:00:16.811Z,3.43
2019-03-28T12:02:45.887Z,3.00
2019-03-28T12:05:15.093Z,3.10
2019-03-28T12:07:44.118Z,2.90
2019-03-28T12:10:13.651Z,2.53
2019-03-28T12:12:42.570Z,2.93
2019-03-28T12:15:12.200Z,3.10
2019-03-28T12:17:41.128Z,2.90
2019-03-28T12:20:10.344Z,3.20
2019-03-28T12:22:39.369Z,3.40
2019-03-28T12:25:08.604Z,3.30
2019-03-28T12:27:37.703Z,3.40
2019-03-28T12:30:09.231Z,4.03
2019-03-28T12:32:38.347Z,4.33
2019-03-28T12:35:07.807Z,3.13
2019-03-28T12:37:37.046Z,2.93
2019-03-28T12:40:10.201Z,2.83
2019-03-28T12:42:39.140Z,3.50
2019-03-28T12:45:11.961Z,2.80
2019-03-28T12:47:42.690Z,2.97
2019-03-28T12:50:13.936Z,3.40
2019-03-28T12:52:42.984Z,3.00
2019-03-28T12:55:12.069Z,3.10
2019-03-28T12:57:41.028Z,3.33
2019-03-28T13:00:11.614Z,3.17
2019-03-28T13:02:40.810Z,3.43
2019-03-28T13:05:10.287Z,3.13
2019-03-28T13:07:39.276Z,3.23
2019-03-28T13:10:10.627Z,3.27
2019-03-28T13:12:39.666Z,3.77
2019-03-28T13:15:08.765Z,4.27
2019-03-28T13:17:37.715Z,3.60
2019-03-28T13:20:09.430Z,5.00
2019-03-28T13:22:38.439Z,4.37
2019-03-28T13:25:07.913Z,4.50
2019-03-28T13:27:37.058Z,4.00
2019-03-28T13:30:11.694Z,4.17
2019-03-28T13:32:42.062Z,4.17
2019-03-28T13:35:12.134Z,4.37
2019-03-28T13:37:41.143Z,7.10
2019-03-28T13:40:11.306Z,8.87
2019-03-28T13:42:40.318Z,5.53
2019-03-28T13:45:11.126Z,4.97
2019-03-28T13:47:40.238Z,5.00
2019-03-28T13:50:11.601Z,4.63
2019-03-28T13:52:40.600Z,4.70
2019-03-28T13:55:09.869Z,4.57
2019-03-28T13:57:38.813Z,4.97
2019-03-28T14:00:09.213Z,4.77
2019-03-28T14:02:38.327Z,4.60
2019-03-28T14:05:09.027Z,5.50
2019-03-28T14:07:38.054Z,5.10
2019-03-28T14:10:07.723Z,5.60
2019-03-28T14:12:36.758Z,4.83
2019-03-28T14:15:07.413Z,5.23
2019-03-28T14:17:37.748Z,4.60
2019-03-28T14:20:07.452Z,4.77
2019-03-28T14:22:36.438Z,5.00
2019-03-28T14:25:06.578Z,4.93
2019-03-28T14:27:35.647Z,4.93
2019-03-28T14:30:09.578Z,4.23
2019-03-28T14:32:52.126Z,4.47
2019-03-28T14:35:09.244Z,4.77
2019-03-28T14:37:40.712Z,5.37
2019-03-28T14:40:10.696Z,4.63
2019-03-28T14:42:40.722Z,4.70
2019-03-28T14:45:10.297Z,5.23
2019-03-28T14:47:39.308Z,4.77
2019-03-28T14:50:08.937Z,4.40
2019-03-28T14:52:37.919Z,4.70
2019-03-28T14:55:07.299Z,5.07
2019-03-28T14:57:37.289Z,5.17
2019-03-28T15:00:32.014Z,4.87
2019-03-28T15:03:00.944Z,5.03
2019-03-28T15:05:29.910Z,5.00
2019-03-28T15:07:58.847Z,5.00
2019-03-28T15:10:27.920Z,5.40
2019-03-28T15:12:57.050Z,5.37
2019-03-28T15:15:26.215Z,5.20
2019-03-28T15:17:55.187Z,5.30
2019-03-28T15:20:27.320Z,5.30
2019-03-28T15:22:54.860Z,6.17
2019-03-28T15:25:23.806Z,4.90
2019-03-28T15:27:52.920Z,5.07
2019-03-28T15:30:21.902Z,5.13
2019-03-28T15:32:50.865Z,5.13
2019-03-28T15:35:19.868Z,5.10
2019-03-28T15:37:48.850Z,5.33
2019-03-28T15:40:18.061Z,6.47
2019-03-28T15:42:47.102Z,5.43
2019-03-28T15:45:16.195Z,5.80
2019-03-28T15:47:45.175Z,4.60
2019-03-28T15:50:14.427Z,4.97
2019-03-28T15:52:43.487Z,4.63
2019-03-28T15:55:14.681Z,4.57
2019-03-28T15:57:43.207Z,4.53
2019-03-28T16:00:12.626Z,4.23
2019-03-28T16:02:41.633Z,5.40
2019-03-28T16:05:10.565Z,4.43
2019-03-28T16:07:39.573Z,5.60
2019-03-28T16:10:09.854Z,5.37
2019-03-28T16:12:38.908Z,5.10
2019-03-28T16:15:08.460Z,5.77
2019-03-28T16:17:37.563Z,5.13
2019-03-28T16:20:07.222Z,5.20
2019-03-28T16:22:36.169Z,5.10
2019-03-28T16:25:06.959Z,5.10
2019-03-28T16:27:35.930Z,4.37
2019-03-28T16:30:07.974Z,4.70
2019-03-28T16:32:36.982Z,4.80
2019-03-28T16:35:07.560Z,4.50
2019-03-28T16:37:36.513Z,5.27
2019-03-28T16:40:06.360Z,4.97
2019-03-28T16:42:35.294Z,4.60
2019-03-28T16:45:08.537Z,4.77
2019-03-28T16:47:37.474Z,5.90
2019-03-28T16:50:06.718Z,5.33
2019-03-28T16:52:35.742Z,4.60
2019-03-28T16:55:05.578Z,6.97
2019-03-28T16:57:34.634Z,4.60
2019-03-28T17:00:08.765Z,4.73
2019-03-28T17:02:37.730Z,4.50
2019-03-28T17:05:07.555Z,5.00
2019-03-28T17:07:37.842Z,4.70
2019-03-28T17:10:07.869Z,5.90
2019-03-28T17:12:36.878Z,4.57
2019-03-28T17:15:09.309Z,3.90
2019-03-28T17:17:39.106Z,4.30
2019-03-28T17:20:08.489Z,4.00
2019-03-28T17:22:37.669Z,4.37
2019-03-28T17:25:07.275Z,4.13
2019-03-28T17:27:36.246Z,4.27
2019-03-28T17:30:07.331Z,4.57
2019-03-28T17:32:37.051Z,4.10
2019-03-28T17:35:06.592Z,4.60
2019-03-28T17:37:35.630Z,4.50
2019-03-28T17:40:06.971Z,3.93
2019-03-28T17:42:36.084Z,3.90
2019-03-28T17:45:07.500Z,4.27
2019-03-28T17:47:37.208Z,4.47
2019-03-28T17:50:07.531Z,5.27
2019-03-28T17:52:36.675Z,5.40
2019-03-28T17:55:06.851Z,5.00
2019-03-28T17:57:35.968Z,5.27
2019-03-28T18:00:08.633Z,4.93
2019-03-28T18:02:37.730Z,4.63
2019-03-28T18:05:09.696Z,5.00
2019-03-28T18:07:38.493Z,4.60
2019-03-28T18:10:07.786Z,4.37
2019-03-28T18:12:36.855Z,4.20
2019-03-28T18:15:07.022Z,4.03
2019-03-28T18:17:36.165Z,4.10
2019-03-28T18:20:08.210Z,4.60
2019-03-28T18:22:37.368Z,4.73
2019-03-28T18:25:07.824Z,4.33
2019-03-28T18:27:36.927Z,4.27
2019-03-28T18:30:09.638Z,4.03
2019-03-28T18:32:39.534Z,4.20
2019-03-28T18:35:08.895Z,4.47
2019-03-28T18:37:41.414Z,4.30
2019-03-28T18:40:10.583Z,3.80
2019-03-28T18:42:39.639Z,4.17
2019-03-28T18:45:12.516Z,4.70
2019-03-28T18:47:40.012Z,4.57
2019-03-28T18:50:09.460Z,4.17
2019-03-28T18:52:38.459Z,4.00
2019-03-28T18:55:07.956Z,4.77
2019-03-28T18:57:36.904Z,5.27
2019-03-28T19:00:08.343Z,5.40
2019-03-28T19:02:37.342Z,5.87
2019-03-28T19:05:18.948Z,4.33
2019-03-28T19:07:37.419Z,4.87
2019-03-28T19:10:07.610Z,4.30
2019-03-28T19:12:36.555Z,4.97
2019-03-28T19:15:07.561Z,5.93
2019-03-28T19:17:36.881Z,5.77
2019-03-28T19:20:07.783Z,5.57
2019-03-28T19:22:37.199Z,4.60
2019-03-28T19:25:08.778Z,4.83
2019-03-28T19:27:38.647Z,4.53
2019-03-28T19:30:10.140Z,5.57
2019-03-28T19:32:39.136Z,5.70
2019-03-28T19:35:08.931Z,5.10
2019-03-28T19:37:38.023Z,4.50
2019-03-28T19:40:08.713Z,4.90
2019-03-28T19:42:38.413Z,4.80
2019-03-28T19:45:07.985Z,5.50
2019-03-28T19:47:37.198Z,4.87
2019-03-28T19:50:08.299Z,4.97
2019-03-28T19:52:37.408Z,5.40
2019-03-28T19:55:06.914Z,5.23
2019-03-28T19:57:36.104Z,5.87
2019-03-28T20:00:07.205Z,5.97
2019-03-28T20:02:36.306Z,5.60
2019-03-28T20:05:07.712Z,6.37
2019-03-28T20:07:36.695Z,5.93
2019-03-28T20:10:16.098Z,5.50
2019-03-28T20:12:36.870Z,5.13
2019-03-28T20:15:08.033Z,5.80
2019-03-28T20:17:37.627Z,5.67
2019-03-28T20:20:07.694Z,5.47
2019-03-28T20:22:36.768Z,6.03
2019-03-28T20:25:07.321Z,7.57
2019-03-28T20:27:36.396Z,7.07
2019-03-28T20:30:09.234Z,6.67
2019-03-28T20:32:38.354Z,6.90
2019-03-28T20:35:10.417Z,6.93
2019-03-28T20:37:38.614Z,7.80
2019-03-28T20:40:08.242Z,6.60
2019-03-28T20:42:37.251Z,6.40
2019-03-28T20:45:08.125Z,7.33
2019-03-28T20:47:37.839Z,6.50
2019-03-28T20:50:07.627Z,6.53
2019-03-28T20:52:36.791Z,5.97
2019-03-28T20:55:07.269Z,5.77
2019-03-28T20:57:36.309Z,5.93
2019-03-28T21:00:09.038Z,5.90
2019-03-28T21:02:38.244Z,5.80
2019-03-28T21:05:09.229Z,6.23
2019-03-28T21:07:38.391Z,5.87
2019-03-28T21:10:08.000Z,6.50
2019-03-28T21:12:37.015Z,6.00
2019-03-28T21:15:07.644Z,7.13
2019-03-28T21:17:36.728Z,7.33
2019-03-28T21:20:07.840Z,5.90
2019-03-28T21:22:36.773Z,6.20
2019-03-28T21:25:06.943Z,7.00
2019-03-28T21:27:35.907Z,6.57
2019-03-28T21:30:06.808Z,6.23
2019-03-28T21:32:35.841Z,7.27
2019-03-28T21:35:07.923Z,6.10
2019-03-28T21:37:36.854Z,6.63
2019-03-28T21:40:06.639Z,6.10
2019-03-28T21:42:35.583Z,5.53
2019-03-28T21:45:05.603Z,5.93
2019-03-28T21:47:34.555Z,5.70
2019-03-28T21:50:04.627Z,5.80
2019-03-28T21:52:33.562Z,5.33
2019-03-28T21:55:02.529Z,5.00
2019-03-28T21:57:31.493Z,5.30
2019-03-28T22:00:00.480Z,7.47
2019-03-28T22:02:29.438Z,5.73
2019-03-28T22:04:58.443Z,5.03
2019-03-28T22:07:27.424Z,5.27
2019-03-28T22:09:56.458Z,4.80
2019-03-28T22:12:25.378Z,5.23
2019-03-28T22:14:54.359Z,5.20
2019-03-28T22:17:23.358Z,5.17
2019-03-28T22:19:52.279Z,5.10
2019-03-28T22:22:21.241Z,4.90
2019-03-28T22:24:50.179Z,4.87
2019-03-28T22:27:19.159Z,4.57
2019-03-28T22:29:48.091Z,4.80
2019-03-28T22:32:17.053Z,4.00
2019-03-28T22:34:45.969Z,4.70
2019-03-28T22:37:14.959Z,4.60
2019-03-28T22:39:43.886Z,4.80
2019-03-28T22:42:12.854Z,4.80
2019-03-28T22:44:41.783Z,4.90
2019-03-28T22:47:10.728Z,4.53
2019-03-28T22:49:39.656Z,4.23
2019-03-28T22:52:08.618Z,4.57
2019-03-28T22:54:37.619Z,4.80
2019-03-28T22:57:06.566Z,5.03
2019-03-28T22:59:35.509Z,4.77
2019-03-28T23:02:04.599Z,5.30
2019-03-28T23:04:33.542Z,4.93
2019-03-28T23:07:10.906Z,4.80
2019-03-28T23:09:33.219Z,4.50
2019-03-28T23:12:02.259Z,4.97
2019-03-28T23:14:31.227Z,5.27
2019-03-28T23:17:00.147Z,5.67
2019-03-28T23:19:29.122Z,5.80
2019-03-28T23:21:58.232Z,5.43
2019-03-28T23:24:27.276Z,4.83
2019-03-28T23:26:56.222Z,5.37
2019-03-28T23:29:25.224Z,5.00
2019-03-28T23:31:54.198Z,4.63
2019-03-28T23:34:23.157Z,4.93
2019-03-28T23:36:52.080Z,4.77
2019-03-28T23:39:21.069Z,5.77
2019-03-28T23:41:49.983Z,4.80
2019-03-28T23:44:19.034Z,4.87
2019-03-28T23:46:47.961Z,4.90
2019-03-28T23:49:17.006Z,4.73
2019-03-28T23:51:45.998Z,4.87
2019-03-28T23:54:14.958Z,5.53
2019-03-28T23:56:43.899Z,4.63
2019-03-28T23:59:13.328Z,4.73
